sensor_id;sensor_type;location;lat;lon;timestamp;P1;durP1;ratioP1;P2;durP2;ratioP2
4963;SDS011;2497;47.410;9.740;2023-03-13T00:00:28;1.17;;;1.03;;
4963;SDS011;2497;47.410;9.740;2023-03-13T00:02:55;0.90;;;0.80;;
4963;SDS011;2497;47.410;9.740;2023-03-13T00:05:22;1.20;;;1.10;;
4963;SDS011;2497;47.410;9.740;2023-03-13T00:07:49;1.77;;;1.10;;
4963;SDS011;2497;47.410;9.740;2023-03-13T00:10:18;1.40;;;1.10;;
4963;SDS011;2497;47.410;9.740;2023-03-13T00:12:45;1.60;;;1.00;;
4963;SDS011;2497;47.410;9.740;2023-03-13T00:15:12;2.70;;;1.03;;
4963;SDS011;2497;47.410;9.740;2023-03-13T00:17:39;1.17;;;0.90;;
4963;SDS011;2497;47.410;9.740;2023-03-13T00:20:06;1.30;;;1.00;;
4963;SDS011;2497;47.410;9.740;2023-03-13T00:22:34;1.20;;;0.90;;
4963;SDS011;2497;47.410;9.740;2023-03-13T00:25:02;3.37;;;0.90;;
4963;SDS011;2497;47.410;9.740;2023-03-13T00:27:32;4.30;;;1.00;;
4963;SDS011;2497;47.410;9.740;2023-03-13T00:29:59;1.00;;;0.80;;
4963;SDS011;2497;47.410;9.740;2023-03-13T00:32:27;1.13;;;0.90;;
4963;SDS011;2497;47.410;9.740;2023-03-13T00:34:54;1.70;;;1.03;;
4963;SDS011;2497;47.410;9.740;2023-03-13T00:37:21;1.50;;;1.00;;
4963;SDS011;2497;47.410;9.740;2023-03-13T00:39:48;1.70;;;1.07;;
4963;SDS011;2497;47.410;9.740;2023-03-13T00:42:15;7.57;;;1.23;;
4963;SDS011;2497;47.410;9.740;2023-03-13T00:44:44;0.90;;;0.70;;
4963;SDS011;2497;47.410;9.740;2023-03-13T00:47:11;2.53;;;1.00;;
4963;SDS011;2497;47.410;9.740;2023-03-13T00:49:38;2.23;;;1.00;;
4963;SDS011;2497;47.410;9.740;2023-03-13T00:52:05;0.90;;;0.70;;
4963;SDS011;2497;47.410;9.740;2023-03-13T00:54:32;1.00;;;0.80;;
4963;SDS011;2497;47.410;9.740;2023-03-13T00:56:59;1.83;;;1.20;;
4963;SDS011;2497;47.410;9.740;2023-03-13T00:59:27;1.07;;;0.97;;
4963;SDS011;2497;47.410;9.740;2023-03-13T01:01:55;1.00;;;0.90;;
4963;SDS011;2497;47.410;9.740;2023-03-13T01:04:22;1.00;;;0.90;;
4963;SDS011;2497;47.410;9.740;2023-03-13T01:06:49;1.10;;;0.90;;
4963;SDS011;2497;47.410;9.740;2023-03-13T01:09:16;2.43;;;1.00;;
4963;SDS011;2497;47.410;9.740;2023-03-13T01:11:44;2.87;;;1.20;;
4963;SDS011;2497;47.410;9.740;2023-03-13T01:14:12;1.00;;;0.90;;
4963;SDS011;2497;47.410;9.740;2023-03-13T01:16:40;1.10;;;1.00;;
4963;SDS011;2497;47.410;9.740;2023-03-13T01:19:10;1.20;;;1.03;;
4963;SDS011;2497;47.410;9.740;2023-03-13T01:21:39;2.33;;;1.00;;
4963;SDS011;2497;47.410;9.740;2023-03-13T01:24:07;1.47;;;1.00;;
4963;SDS011;2497;47.410;9.740;2023-03-13T01:26:35;1.63;;;0.90;;
4963;SDS011;2497;47.410;9.740;2023-03-13T01:29:02;1.57;;;0.90;;
4963;SDS011;2497;47.410;9.740;2023-03-13T01:31:30;1.60;;;0.80;;
4963;SDS011;2497;47.410;9.740;2023-03-13T01:33:59;0.90;;;0.80;;
4963;SDS011;2497;47.410;9.740;2023-03-13T01:36:28;1.00;;;0.90;;
4963;SDS011;2497;47.410;9.740;2023-03-13T01:38:56;5.63;;;2.00;;
4963;SDS011;2497;47.410;9.740;2023-03-13T01:41:24;1.60;;;1.00;;
4963;SDS011;2497;47.410;9.740;2023-03-13T01:43:53;2.30;;;0.90;;
4963;SDS011;2497;47.410;9.740;2023-03-13T01:46:20;1.07;;;0.80;;
4963;SDS011;2497;47.410;9.740;2023-03-13T01:48:50;3.23;;;0.80;;
4963;SDS011;2497;47.410;9.740;2023-03-13T01:51:20;0.80;;;0.70;;
4963;SDS011;2497;47.410;9.740;2023-03-13T01:53:52;0.90;;;0.80;;
4963;SDS011;2497;47.410;9.740;2023-03-13T01:56:24;1.30;;;1.00;;
4963;SDS011;2497;47.410;9.740;2023-03-13T01:58:55;0.90;;;0.80;;
4963;SDS011;2497;47.410;9.740;2023-03-13T02:01:23;1.10;;;1.00;;
4963;SDS011;2497;47.410;9.740;2023-03-13T02:03:50;1.97;;;0.93;;
4963;SDS011;2497;47.410;9.740;2023-03-13T02:06:18;7.60;;;1.10;;
4963;SDS011;2497;47.410;9.740;2023-03-13T02:08:47;1.30;;;0.80;;
4963;SDS011;2497;47.410;9.740;2023-03-13T02:11:22;1.40;;;0.90;;
4963;SDS011;2497;47.410;9.740;2023-03-13T02:13:55;1.13;;;1.00;;
4963;SDS011;2497;47.410;9.740;2023-03-13T02:16:24;1.17;;;1.00;;
4963;SDS011;2497;47.410;9.740;2023-03-13T02:18:52;0.90;;;0.80;;
4963;SDS011;2497;47.410;9.740;2023-03-13T02:21:22;1.10;;;0.80;;
4963;SDS011;2497;47.410;9.740;2023-03-13T02:23:59;1.30;;;1.00;;
4963;SDS011;2497;47.410;9.740;2023-03-13T02:26:33;1.30;;;1.10;;
4963;SDS011;2497;47.410;9.740;2023-03-13T02:29:00;6.33;;;1.20;;
4963;SDS011;2497;47.410;9.740;2023-03-13T02:31:27;1.30;;;1.13;;
4963;SDS011;2497;47.410;9.740;2023-03-13T02:33:54;2.03;;;1.03;;
4963;SDS011;2497;47.410;9.740;2023-03-13T02:36:26;1.23;;;0.93;;
4963;SDS011;2497;47.410;9.740;2023-03-13T02:38:56;1.20;;;1.00;;
4963;SDS011;2497;47.410;9.740;2023-03-13T02:41:28;1.10;;;0.97;;
4963;SDS011;2497;47.410;9.740;2023-03-13T02:43:58;1.10;;;1.00;;
4963;SDS011;2497;47.410;9.740;2023-03-13T02:46:25;1.33;;;1.10;;
4963;SDS011;2497;47.410;9.740;2023-03-13T02:48:53;1.57;;;1.00;;
4963;SDS011;2497;47.410;9.740;2023-03-13T02:51:21;1.30;;;0.80;;
4963;SDS011;2497;47.410;9.740;2023-03-13T02:53:54;1.57;;;1.00;;
4963;SDS011;2497;47.410;9.740;2023-03-13T02:56:26;1.30;;;0.90;;
4963;SDS011;2497;47.410;9.740;2023-03-13T02:58:58;1.10;;;0.80;;
4963;SDS011;2497;47.410;9.740;2023-03-13T03:01:25;1.20;;;0.90;;
4963;SDS011;2497;47.410;9.740;2023-03-13T03:03:52;1.23;;;0.97;;
4963;SDS011;2497;47.410;9.740;2023-03-13T03:06:19;3.10;;;1.00;;
4963;SDS011;2497;47.410;9.740;2023-03-13T03:08:46;1.87;;;1.20;;
4963;SDS011;2497;47.410;9.740;2023-03-13T03:11:14;1.30;;;0.97;;
4963;SDS011;2497;47.410;9.740;2023-03-13T03:13:41;1.60;;;1.10;;
4963;SDS011;2497;47.410;9.740;2023-03-13T03:16:10;3.83;;;1.00;;
4963;SDS011;2497;47.410;9.740;2023-03-13T03:18:42;1.00;;;0.90;;
4963;SDS011;2497;47.410;9.740;2023-03-13T03:21:09;1.00;;;0.80;;
4963;SDS011;2497;47.410;9.740;2023-03-13T03:23:37;1.40;;;0.90;;
4963;SDS011;2497;47.410;9.740;2023-03-13T03:26:04;2.80;;;1.33;;
4963;SDS011;2497;47.410;9.740;2023-03-13T03:28:33;0.90;;;0.80;;
4963;SDS011;2497;47.410;9.740;2023-03-13T03:31:02;1.50;;;0.90;;
4963;SDS011;2497;47.410;9.740;2023-03-13T03:33:31;1.27;;;1.00;;
4963;SDS011;2497;47.410;9.740;2023-03-13T03:35:59;1.80;;;1.00;;
4963;SDS011;2497;47.410;9.740;2023-03-13T03:38:26;1.67;;;0.80;;
4963;SDS011;2497;47.410;9.740;2023-03-13T03:40:54;1.00;;;0.83;;
4963;SDS011;2497;47.410;9.740;2023-03-13T03:43:21;1.43;;;0.97;;
4963;SDS011;2497;47.410;9.740;2023-03-13T03:45:48;2.33;;;0.93;;
4963;SDS011;2497;47.410;9.740;2023-03-13T03:48:15;1.70;;;1.13;;
4963;SDS011;2497;47.410;9.740;2023-03-13T03:50:44;1.20;;;0.90;;
4963;SDS011;2497;47.410;9.740;2023-03-13T03:53:11;1.13;;;1.00;;
4963;SDS011;2497;47.410;9.740;2023-03-13T03:55:38;1.63;;;1.10;;
4963;SDS011;2497;47.410;9.740;2023-03-13T03:58:06;5.27;;;1.40;;
4963;SDS011;2497;47.410;9.740;2023-03-13T04:00:33;1.30;;;1.00;;
4963;SDS011;2497;47.410;9.740;2023-03-13T04:03:00;1.60;;;1.20;;
4963;SDS011;2497;47.410;9.740;2023-03-13T04:05:27;2.50;;;1.50;;
4963;SDS011;2497;47.410;9.740;2023-03-13T04:07:56;2.03;;;1.43;;
4963;SDS011;2497;47.410;9.740;2023-03-13T04:10:23;1.53;;;1.17;;
4963;SDS011;2497;47.410;9.740;2023-03-13T04:12:50;4.80;;;1.60;;
4963;SDS011;2497;47.410;9.740;2023-03-13T04:15:17;2.80;;;1.30;;
4963;SDS011;2497;47.410;9.740;2023-03-13T04:17:44;1.60;;;1.20;;
4963;SDS011;2497;47.410;9.740;2023-03-13T04:20:11;0.90;;;0.80;;
4963;SDS011;2497;47.410;9.740;2023-03-13T04:22:38;6.60;;;1.63;;
4963;SDS011;2497;47.410;9.740;2023-03-13T04:25:08;5.27;;;1.57;;
4963;SDS011;2497;47.410;9.740;2023-03-13T04:27:35;1.57;;;1.20;;
4963;SDS011;2497;47.410;9.740;2023-03-13T04:30:03;1.10;;;0.87;;
4963;SDS011;2497;47.410;9.740;2023-03-13T04:32:32;1.67;;;1.20;;
4963;SDS011;2497;47.410;9.740;2023-03-13T04:34:59;1.47;;;1.30;;
4963;SDS011;2497;47.410;9.740;2023-03-13T04:37:26;1.87;;;1.20;;
4963;SDS011;2497;47.410;9.740;2023-03-13T04:39:53;2.10;;;1.23;;
4963;SDS011;2497;47.410;9.740;2023-03-13T04:42:22;2.70;;;1.20;;
4963;SDS011;2497;47.410;9.740;2023-03-13T04:44:49;2.90;;;1.20;;
4963;SDS011;2497;47.410;9.740;2023-03-13T04:47:17;2.50;;;1.00;;
4963;SDS011;2497;47.410;9.740;2023-03-13T04:49:44;3.57;;;1.57;;
4963;SDS011;2497;47.410;9.740;2023-03-13T04:52:11;5.13;;;2.30;;
4963;SDS011;2497;47.410;9.740;2023-03-13T04:54:38;4.23;;;1.77;;
4963;SDS011;2497;47.410;9.740;2023-03-13T04:57:05;5.73;;;2.50;;
4963;SDS011;2497;47.410;9.740;2023-03-13T04:59:34;5.83;;;1.90;;
4963;SDS011;2497;47.410;9.740;2023-03-13T05:02:01;2.30;;;1.60;;
4963;SDS011;2497;47.410;9.740;2023-03-13T05:04:28;5.53;;;1.77;;
4963;SDS011;2497;47.410;9.740;2023-03-13T05:06:55;5.67;;;2.43;;
4963;SDS011;2497;47.410;9.740;2023-03-13T05:09:22;3.10;;;1.67;;
4963;SDS011;2497;47.410;9.740;2023-03-13T05:11:49;3.07;;;1.53;;
4963;SDS011;2497;47.410;9.740;2023-03-13T05:14:16;2.13;;;1.33;;
4963;SDS011;2497;47.410;9.740;2023-03-13T05:16:45;2.43;;;1.63;;
4963;SDS011;2497;47.410;9.740;2023-03-13T05:19:14;2.10;;;1.40;;
4963;SDS011;2497;47.410;9.740;2023-03-13T05:21:42;3.80;;;1.63;;
4963;SDS011;2497;47.410;9.740;2023-03-13T05:24:09;2.07;;;1.57;;
4963;SDS011;2497;47.410;9.740;2023-03-13T05:26:36;9.23;;;2.00;;
4963;SDS011;2497;47.410;9.740;2023-03-13T05:29:03;2.80;;;1.57;;
4963;SDS011;2497;47.410;9.740;2023-03-13T05:31:30;1.50;;;1.10;;
4963;SDS011;2497;47.410;9.740;2023-03-13T05:33:59;1.70;;;1.23;;
4963;SDS011;2497;47.410;9.740;2023-03-13T05:36:29;3.00;;;1.33;;
4963;SDS011;2497;47.410;9.740;2023-03-13T05:38:56;5.20;;;1.40;;
4963;SDS011;2497;47.410;9.740;2023-03-13T05:41:23;1.70;;;1.10;;
4963;SDS011;2497;47.410;9.740;2023-03-13T05:43:50;3.40;;;1.70;;
4963;SDS011;2497;47.410;9.740;2023-03-13T05:46:17;1.70;;;1.30;;
4963;SDS011;2497;47.410;9.740;2023-03-13T05:48:44;4.83;;;1.67;;
4963;SDS011;2497;47.410;9.740;2023-03-13T05:51:13;2.87;;;1.53;;
4963;SDS011;2497;47.410;9.740;2023-03-13T05:53:40;1.60;;;1.50;;
4963;SDS011;2497;47.410;9.740;2023-03-13T05:56:07;4.73;;;2.40;;
4963;SDS011;2497;47.410;9.740;2023-03-13T05:58:34;1.90;;;1.50;;
4963;SDS011;2497;47.410;9.740;2023-03-13T06:01:04;3.47;;;1.80;;
4963;SDS011;2497;47.410;9.740;2023-03-13T06:03:34;3.40;;;1.70;;
4963;SDS011;2497;47.410;9.740;2023-03-13T06:06:01;1.60;;;1.10;;
4963;SDS011;2497;47.410;9.740;2023-03-13T06:08:29;2.10;;;1.20;;
4963;SDS011;2497;47.410;9.740;2023-03-13T06:10:57;1.70;;;1.03;;
4963;SDS011;2497;47.410;9.740;2023-03-13T06:13:25;2.60;;;1.20;;
4963;SDS011;2497;47.410;9.740;2023-03-13T06:15:53;1.83;;;1.00;;
4963;SDS011;2497;47.410;9.740;2023-03-13T06:18:22;3.93;;;1.30;;
4963;SDS011;2497;47.410;9.740;2023-03-13T06:20:54;4.60;;;1.20;;
4963;SDS011;2497;47.410;9.740;2023-03-13T06:23:22;10.37;;;3.57;;
4963;SDS011;2497;47.410;9.740;2023-03-13T06:25:51;5.90;;;3.47;;
4963;SDS011;2497;47.410;9.740;2023-03-13T06:28:18;10.43;;;3.87;;
4963;SDS011;2497;47.410;9.740;2023-03-13T06:30:45;9.27;;;4.10;;
4963;SDS011;2497;47.410;9.740;2023-03-13T06:33:12;8.77;;;3.67;;
4963;SDS011;2497;47.410;9.740;2023-03-13T06:35:40;4.60;;;2.90;;
4963;SDS011;2497;47.410;9.740;2023-03-13T06:38:08;7.43;;;3.33;;
4963;SDS011;2497;47.410;9.740;2023-03-13T06:40:35;8.00;;;4.20;;
4963;SDS011;2497;47.410;9.740;2023-03-13T06:43:04;6.60;;;3.70;;
4963;SDS011;2497;47.410;9.740;2023-03-13T06:45:31;6.10;;;3.83;;
4963;SDS011;2497;47.410;9.740;2023-03-13T06:48:00;4.93;;;2.90;;
4963;SDS011;2497;47.410;9.740;2023-03-13T06:50:28;5.73;;;3.10;;
4963;SDS011;2497;47.410;9.740;2023-03-13T06:52:55;4.70;;;3.03;;
4963;SDS011;2497;47.410;9.740;2023-03-13T06:55:22;5.93;;;2.53;;
4963;SDS011;2497;47.410;9.740;2023-03-13T06:57:50;6.23;;;3.47;;
4963;SDS011;2497;47.410;9.740;2023-03-13T07:00:19;4.70;;;2.87;;
4963;SDS011;2497;47.410;9.740;2023-03-13T07:02:46;4.80;;;2.40;;
4963;SDS011;2497;47.410;9.740;2023-03-13T07:05:14;5.63;;;2.20;;
4963;SDS011;2497;47.410;9.740;2023-03-13T07:07:41;3.40;;;2.10;;
4963;SDS011;2497;47.410;9.740;2023-03-13T07:10:09;6.53;;;2.37;;
4963;SDS011;2497;47.410;9.740;2023-03-13T07:12:37;7.47;;;2.83;;
4963;SDS011;2497;47.410;9.740;2023-03-13T07:15:04;8.33;;;2.40;;
4963;SDS011;2497;47.410;9.740;2023-03-13T07:17:34;5.87;;;2.60;;
4963;SDS011;2497;47.410;9.740;2023-03-13T07:20:01;6.77;;;2.43;;
4963;SDS011;2497;47.410;9.740;2023-03-13T07:22:30;4.10;;;2.67;;
4963;SDS011;2497;47.410;9.740;2023-03-13T07:24:58;5.20;;;2.27;;
4963;SDS011;2497;47.410;9.740;2023-03-13T07:27:25;3.53;;;1.73;;
4963;SDS011;2497;47.410;9.740;2023-03-13T07:29:52;3.20;;;1.40;;
4963;SDS011;2497;47.410;9.740;2023-03-13T07:32:19;7.37;;;2.60;;
4963;SDS011;2497;47.410;9.740;2023-03-13T07:34:47;5.37;;;2.67;;
4963;SDS011;2497;47.410;9.740;2023-03-13T07:37:15;9.13;;;2.40;;
4963;SDS011;2497;47.410;9.740;2023-03-13T07:39:42;2.50;;;1.90;;
4963;SDS011;2497;47.410;9.740;2023-03-13T07:42:09;6.57;;;2.37;;
4963;SDS011;2497;47.410;9.740;2023-03-13T07:44:37;3.93;;;2.43;;
4963;SDS011;2497;47.410;9.740;2023-03-13T07:47:07;2.63;;;1.80;;
4963;SDS011;2497;47.410;9.740;2023-03-13T07:49:34;4.03;;;2.50;;
4963;SDS011;2497;47.410;9.740;2023-03-13T07:52:06;4.37;;;1.90;;
4963;SDS011;2497;47.410;9.740;2023-03-13T07:54:33;5.60;;;2.27;;
4963;SDS011;2497;47.410;9.740;2023-03-13T07:57:01;4.13;;;2.30;;
4963;SDS011;2497;47.410;9.740;2023-03-13T07:59:28;3.83;;;2.13;;
4963;SDS011;2497;47.410;9.740;2023-03-13T08:01:55;12.97;;;2.40;;
4963;SDS011;2497;47.410;9.740;2023-03-13T08:04:22;3.20;;;2.23;;
4963;SDS011;2497;47.410;9.740;2023-03-13T08:06:49;7.53;;;2.70;;
4963;SDS011;2497;47.410;9.740;2023-03-13T08:09:20;6.63;;;2.20;;
4963;SDS011;2497;47.410;9.740;2023-03-13T08:11:47;2.23;;;1.70;;
4963;SDS011;2497;47.410;9.740;2023-03-13T08:14:14;2.47;;;1.63;;
4963;SDS011;2497;47.410;9.740;2023-03-13T08:16:41;3.63;;;1.97;;
4963;SDS011;2497;47.410;9.740;2023-03-13T08:19:08;2.77;;;1.73;;
4963;SDS011;2497;47.410;9.740;2023-03-13T08:21:36;6.13;;;2.13;;
4963;SDS011;2497;47.410;9.740;2023-03-13T08:24:04;1.40;;;1.20;;
4963;SDS011;2497;47.410;9.740;2023-03-13T08:26:34;2.30;;;1.60;;
4963;SDS011;2497;47.410;9.740;2023-03-13T08:29:03;3.47;;;1.53;;
4963;SDS011;2497;47.410;9.740;2023-03-13T08:31:32;3.30;;;1.67;;
4963;SDS011;2497;47.410;9.740;2023-03-13T08:34:00;3.37;;;1.70;;
4963;SDS011;2497;47.410;9.740;2023-03-13T08:36:30;3.00;;;2.10;;
4963;SDS011;2497;47.410;9.740;2023-03-13T08:38:58;2.47;;;1.70;;
4963;SDS011;2497;47.410;9.740;2023-03-13T08:41:27;1.87;;;1.40;;
4963;SDS011;2497;47.410;9.740;2023-03-13T08:43:57;2.43;;;1.70;;
4963;SDS011;2497;47.410;9.740;2023-03-13T08:46:25;2.30;;;1.60;;
4963;SDS011;2497;47.410;9.740;2023-03-13T08:48:54;4.17;;;2.27;;
4963;SDS011;2497;47.410;9.740;2023-03-13T08:51:22;2.87;;;1.80;;
4963;SDS011;2497;47.410;9.740;2023-03-13T08:53:50;2.47;;;1.60;;
4963;SDS011;2497;47.410;9.740;2023-03-13T08:56:20;2.17;;;1.40;;
4963;SDS011;2497;47.410;9.740;2023-03-13T08:58:48;2.47;;;1.67;;
4963;SDS011;2497;47.410;9.740;2023-03-13T09:01:17;2.90;;;1.30;;
4963;SDS011;2497;47.410;9.740;2023-03-13T09:03:45;4.43;;;2.03;;
4963;SDS011;2497;47.410;9.740;2023-03-13T09:06:12;2.17;;;1.67;;
4963;SDS011;2497;47.410;9.740;2023-03-13T09:08:40;2.37;;;1.60;;
4963;SDS011;2497;47.410;9.740;2023-03-13T09:11:08;2.97;;;1.70;;
4963;SDS011;2497;47.410;9.740;2023-03-13T09:13:37;2.13;;;1.50;;
4963;SDS011;2497;47.410;9.740;2023-03-13T09:16:06;2.63;;;1.70;;
4963;SDS011;2497;47.410;9.740;2023-03-13T09:18:36;3.50;;;1.47;;
4963;SDS011;2497;47.410;9.740;2023-03-13T09:21:05;3.53;;;1.60;;
4963;SDS011;2497;47.410;9.740;2023-03-13T09:23:33;2.90;;;1.23;;
4963;SDS011;2497;47.410;9.740;2023-03-13T09:26:01;2.70;;;1.70;;
4963;SDS011;2497;47.410;9.740;2023-03-13T09:28:28;7.03;;;2.30;;
4963;SDS011;2497;47.410;9.740;2023-03-13T09:30:55;6.40;;;1.93;;
4963;SDS011;2497;47.410;9.740;2023-03-13T09:33:32;2.83;;;1.60;;
4963;SDS011;2497;47.410;9.740;2023-03-13T09:36:00;7.40;;;1.90;;
4963;SDS011;2497;47.410;9.740;2023-03-13T09:38:27;4.43;;;2.30;;
4963;SDS011;2497;47.410;9.740;2023-03-13T09:40:59;4.03;;;2.07;;
4963;SDS011;2497;47.410;9.740;2023-03-13T09:43:32;2.17;;;1.53;;
4963;SDS011;2497;47.410;9.740;2023-03-13T09:46:07;2.50;;;1.63;;
4963;SDS011;2497;47.410;9.740;2023-03-13T09:48:41;5.60;;;1.97;;
4963;SDS011;2497;47.410;9.740;2023-03-13T09:51:14;4.07;;;1.50;;
4963;SDS011;2497;47.410;9.740;2023-03-13T09:53:45;5.07;;;2.00;;
4963;SDS011;2497;47.410;9.740;2023-03-13T09:56:18;15.77;;;2.63;;
4963;SDS011;2497;47.410;9.740;2023-03-13T09:58:50;5.13;;;2.30;;
4963;SDS011;2497;47.410;9.740;2023-03-13T10:01:21;7.50;;;1.40;;
4963;SDS011;2497;47.410;9.740;2023-03-13T10:03:57;10.70;;;1.93;;
4963;SDS011;2497;47.410;9.740;2023-03-13T10:06:33;10.90;;;2.67;;
4963;SDS011;2497;47.410;9.740;2023-03-13T10:09:07;2.63;;;1.67;;
4963;SDS011;2497;47.410;9.740;2023-03-13T10:11:46;2.50;;;1.70;;
4963;SDS011;2497;47.410;9.740;2023-03-13T10:14:19;7.33;;;1.90;;
4963;SDS011;2497;47.410;9.740;2023-03-13T10:16:53;5.33;;;1.67;;
4963;SDS011;2497;47.410;9.740;2023-03-13T10:19:26;7.00;;;1.70;;
4963;SDS011;2497;47.410;9.740;2023-03-13T10:22:00;8.87;;;1.70;;
4963;SDS011;2497;47.410;9.740;2023-03-13T10:24:30;7.20;;;1.90;;
4963;SDS011;2497;47.410;9.740;2023-03-13T10:26:59;6.00;;;1.53;;
4963;SDS011;2497;47.410;9.740;2023-03-13T10:29:26;1.93;;;1.33;;
4963;SDS011;2497;47.410;9.740;2023-03-13T10:31:55;10.80;;;1.33;;
4963;SDS011;2497;47.410;9.740;2023-03-13T10:34:24;4.40;;;1.50;;
4963;SDS011;2497;47.410;9.740;2023-03-13T10:36:56;2.17;;;1.17;;
4963;SDS011;2497;47.410;9.740;2023-03-13T10:39:26;3.80;;;1.60;;
4963;SDS011;2497;47.410;9.740;2023-03-13T10:41:58;3.60;;;1.80;;
4963;SDS011;2497;47.410;9.740;2023-03-13T10:44:35;3.77;;;2.00;;
4963;SDS011;2497;47.410;9.740;2023-03-13T10:47:02;4.23;;;2.00;;
4963;SDS011;2497;47.410;9.740;2023-03-13T10:49:30;5.97;;;2.13;;
4963;SDS011;2497;47.410;9.740;2023-03-13T10:51:59;5.57;;;1.83;;
4963;SDS011;2497;47.410;9.740;2023-03-13T10:54:29;6.17;;;2.20;;
4963;SDS011;2497;47.410;9.740;2023-03-13T10:57:26;5.30;;;1.97;;
4963;SDS011;2497;47.410;9.740;2023-03-13T10:59:54;7.07;;;2.00;;
4963;SDS011;2497;47.410;9.740;2023-03-13T11:02:25;10.83;;;1.97;;
4963;SDS011;2497;47.410;9.740;2023-03-13T11:04:57;13.43;;;1.90;;
4963;SDS011;2497;47.410;9.740;2023-03-13T11:07:26;3.80;;;2.37;;
4963;SDS011;2497;47.410;9.740;2023-03-13T11:10:00;3.80;;;2.17;;
4963;SDS011;2497;47.410;9.740;2023-03-13T11:12:35;14.37;;;2.20;;
4963;SDS011;2497;47.410;9.740;2023-03-13T11:15:12;3.67;;;1.80;;
4963;SDS011;2497;47.410;9.740;2023-03-13T11:17:41;2.87;;;1.40;;
4963;SDS011;2497;47.410;9.740;2023-03-13T11:20:12;2.80;;;1.30;;
4963;SDS011;2497;47.410;9.740;2023-03-13T11:22:48;5.20;;;1.63;;
4963;SDS011;2497;47.410;9.740;2023-03-13T11:25:24;10.47;;;1.83;;
4963;SDS011;2497;47.410;9.740;2023-03-13T11:28:03;9.43;;;1.77;;
4963;SDS011;2497;47.410;9.740;2023-03-13T11:30:48;3.93;;;1.70;;
4963;SDS011;2497;47.410;9.740;2023-03-13T11:33:27;5.73;;;1.57;;
4963;SDS011;2497;47.410;9.740;2023-03-13T11:36:00;3.80;;;1.73;;
4963;SDS011;2497;47.410;9.740;2023-03-13T11:38:34;2.90;;;1.33;;
4963;SDS011;2497;47.410;9.740;2023-03-13T11:41:14;1.43;;;1.10;;
4963;SDS011;2497;47.410;9.740;2023-03-13T11:49:55;1.60;;;1.20;;
4963;SDS011;2497;47.410;9.740;2023-03-13T11:52:48;7.53;;;1.50;;
4963;SDS011;2497;47.410;9.740;2023-03-13T11:55:37;2.60;;;1.40;;
4963;SDS011;2497;47.410;9.740;2023-03-13T11:58:25;2.93;;;1.47;;
4963;SDS011;2497;47.410;9.740;2023-03-13T12:01:04;2.90;;;1.60;;
4963;SDS011;2497;47.410;9.740;2023-03-13T12:03:35;1.67;;;1.10;;
4963;SDS011;2497;47.410;9.740;2023-03-13T12:06:06;12.47;;;1.77;;
4963;SDS011;2497;47.410;9.740;2023-03-13T12:08:43;4.13;;;1.80;;
4963;SDS011;2497;47.410;9.740;2023-03-13T12:11:15;6.90;;;1.43;;
4963;SDS011;2497;47.410;9.740;2023-03-13T12:13:47;2.27;;;1.20;;
4963;SDS011;2497;47.410;9.740;2023-03-13T12:16:22;3.23;;;1.07;;
4963;SDS011;2497;47.410;9.740;2023-03-13T12:18:58;2.00;;;1.30;;
4963;SDS011;2497;47.410;9.740;2023-03-13T12:21:27;1.90;;;1.30;;
4963;SDS011;2497;47.410;9.740;2023-03-13T12:23:59;1.10;;;1.00;;
4963;SDS011;2497;47.410;9.740;2023-03-13T12:26:32;2.07;;;1.00;;
4963;SDS011;2497;47.410;9.740;2023-03-13T12:29:07;1.27;;;0.93;;
4963;SDS011;2497;47.410;9.740;2023-03-13T12:31:41;1.63;;;0.80;;
4963;SDS011;2497;47.410;9.740;2023-03-13T12:34:15;4.13;;;0.90;;
4963;SDS011;2497;47.410;9.740;2023-03-13T12:36:47;1.10;;;0.93;;
4963;SDS011;2497;47.410;9.740;2023-03-13T12:39:21;0.80;;;0.80;;
4963;SDS011;2497;47.410;9.740;2023-03-13T12:42:04;1.07;;;0.97;;
4963;SDS011;2497;47.410;9.740;2023-03-13T12:44:43;1.00;;;0.80;;
4963;SDS011;2497;47.410;9.740;2023-03-13T12:47:14;1.10;;;0.90;;
4963;SDS011;2497;47.410;9.740;2023-03-13T12:58:42;0.70;;;0.70;;
4963;SDS011;2497;47.410;9.740;2023-03-13T13:01:18;3.57;;;0.83;;
4963;SDS011;2497;47.410;9.740;2023-03-13T13:03:54;0.80;;;0.70;;
4963;SDS011;2497;47.410;9.740;2023-03-13T13:06:23;1.43;;;0.70;;
4963;SDS011;2497;47.410;9.740;2023-03-13T13:09:02;1.93;;;0.80;;
4963;SDS011;2497;47.410;9.740;2023-03-13T13:11:39;0.87;;;0.87;;
4963;SDS011;2497;47.410;9.740;2023-03-13T13:17:20;2.30;;;1.00;;
4963;SDS011;2497;47.410;9.740;2023-03-13T13:32:35;2.23;;;1.23;;
4963;SDS011;2497;47.410;9.740;2023-03-13T13:41:00;1.10;;;1.00;;
4963;SDS011;2497;47.410;9.740;2023-03-13T13:43:30;1.10;;;0.80;;
4963;SDS011;2497;47.410;9.740;2023-03-13T13:45:59;1.50;;;1.00;;
4963;SDS011;2497;47.410;9.740;2023-03-13T13:48:32;1.10;;;0.90;;
4963;SDS011;2497;47.410;9.740;2023-03-13T13:51:20;0.80;;;0.70;;
4963;SDS011;2497;47.410;9.740;2023-03-13T13:53:50;0.97;;;0.70;;
4963;SDS011;2497;47.410;9.740;2023-03-13T13:56:30;1.17;;;0.97;;
4963;SDS011;2497;47.410;9.740;2023-03-13T13:59:02;1.40;;;0.80;;
4963;SDS011;2497;47.410;9.740;2023-03-13T14:01:49;1.60;;;1.23;;
4963;SDS011;2497;47.410;9.740;2023-03-13T14:04:39;1.37;;;1.00;;
4963;SDS011;2497;47.410;9.740;2023-03-13T14:07:11;1.13;;;0.90;;
4963;SDS011;2497;47.410;9.740;2023-03-13T14:09:45;1.00;;;0.90;;
4963;SDS011;2497;47.410;9.740;2023-03-13T14:12:26;1.23;;;0.90;;
4963;SDS011;2497;47.410;9.740;2023-03-13T14:17:40;1.10;;;0.90;;
4963;SDS011;2497;47.410;9.740;2023-03-13T14:20:21;2.73;;;1.00;;
4963;SDS011;2497;47.410;9.740;2023-03-13T14:22:50;3.43;;;1.20;;
4963;SDS011;2497;47.410;9.740;2023-03-13T14:25:18;2.20;;;1.30;;
4963;SDS011;2497;47.410;9.740;2023-03-13T14:27:46;1.90;;;1.10;;
4963;SDS011;2497;47.410;9.740;2023-03-13T14:30:15;1.83;;;1.00;;
4963;SDS011;2497;47.410;9.740;2023-03-13T14:32:44;6.93;;;1.33;;
4963;SDS011;2497;47.410;9.740;2023-03-13T14:35:13;2.70;;;1.33;;
4963;SDS011;2497;47.410;9.740;2023-03-13T14:37:43;1.23;;;1.13;;
4963;SDS011;2497;47.410;9.740;2023-03-13T14:40:22;1.70;;;1.33;;
4963;SDS011;2497;47.410;9.740;2023-03-13T14:42:51;3.90;;;1.00;;
4963;SDS011;2497;47.410;9.740;2023-03-13T14:45:22;2.07;;;1.20;;
4963;SDS011;2497;47.410;9.740;2023-03-13T14:47:52;2.07;;;1.43;;
4963;SDS011;2497;47.410;9.740;2023-03-13T14:50:23;1.90;;;1.20;;
4963;SDS011;2497;47.410;9.740;2023-03-13T14:52:56;2.30;;;1.30;;
4963;SDS011;2497;47.410;9.740;2023-03-13T14:55:33;1.80;;;1.43;;
4963;SDS011;2497;47.410;9.740;2023-03-13T14:58:05;1.80;;;1.30;;
4963;SDS011;2497;47.410;9.740;2023-03-13T15:00:51;2.50;;;1.30;;
4963;SDS011;2497;47.410;9.740;2023-03-13T15:03:19;4.17;;;1.30;;
4963;SDS011;2497;47.410;9.740;2023-03-13T15:05:50;10.97;;;1.63;;
4963;SDS011;2497;47.410;9.740;2023-03-13T15:08:33;5.07;;;1.30;;
4963;SDS011;2497;47.410;9.740;2023-03-13T15:11:02;5.17;;;1.30;;
4963;SDS011;2497;47.410;9.740;2023-03-13T15:13:53;3.33;;;1.47;;
4963;SDS011;2497;47.410;9.740;2023-03-13T15:16:21;2.70;;;1.23;;
4963;SDS011;2497;47.410;9.740;2023-03-13T15:18:50;2.67;;;1.40;;
4963;SDS011;2497;47.410;9.740;2023-03-13T15:21:22;1.93;;;1.30;;
4963;SDS011;2497;47.410;9.740;2023-03-13T15:23:53;2.57;;;1.17;;
4963;SDS011;2497;47.410;9.740;2023-03-13T15:26:23;2.80;;;1.53;;
4963;SDS011;2497;47.410;9.740;2023-03-13T15:28:51;2.30;;;1.23;;
4963;SDS011;2497;47.410;9.740;2023-03-13T15:31:19;3.17;;;1.30;;
4963;SDS011;2497;47.410;9.740;2023-03-13T15:33:49;1.03;;;0.90;;
4963;SDS011;2497;47.410;9.740;2023-03-13T15:36:21;2.73;;;1.17;;
4963;SDS011;2497;47.410;9.740;2023-03-13T15:38:49;4.37;;;1.37;;
4963;SDS011;2497;47.410;9.740;2023-03-13T15:41:18;5.87;;;1.20;;
4963;SDS011;2497;47.410;9.740;2023-03-13T15:43:46;7.90;;;1.80;;
4963;SDS011;2497;47.410;9.740;2023-03-13T15:46:16;5.63;;;1.60;;
4963;SDS011;2497;47.410;9.740;2023-03-13T15:48:45;4.57;;;1.50;;
4963;SDS011;2497;47.410;9.740;2023-03-13T15:51:13;9.10;;;1.70;;
4963;SDS011;2497;47.410;9.740;2023-03-13T15:53:41;9.50;;;1.47;;
4963;SDS011;2497;47.410;9.740;2023-03-13T15:56:12;2.00;;;1.17;;
4963;SDS011;2497;47.410;9.740;2023-03-13T15:58:42;4.63;;;1.63;;
4963;SDS011;2497;47.410;9.740;2023-03-13T16:01:11;2.47;;;1.50;;
4963;SDS011;2497;47.410;9.740;2023-03-13T16:03:39;5.63;;;1.57;;
4963;SDS011;2497;47.410;9.740;2023-03-13T16:06:15;3.50;;;1.50;;
4963;SDS011;2497;47.410;9.740;2023-03-13T16:08:44;3.97;;;1.60;;
4963;SDS011;2497;47.410;9.740;2023-03-13T16:11:13;7.00;;;1.57;;